This is the latest recevied weather packets stored in our database for station/object SP1BMW-13. If no packets are shown the sender has not sent any weather packets the latest 10 day(s).
| Time | Temp. | Humidity | Pressure | Rain* | Wind** | Luminosity | Snow |
|---|---|---|---|---|---|---|---|
| 1787736073 | 21.67° C | 55% | 1021.9 hPa | 0 mm | 0.89 m/s, 204° | 519 W/m² | - |
| 1787736013 | 21.67° C | 56% | 1021.7 hPa | 0 mm | 0.89 m/s, 355° | 524 W/m² | - |
| 1787735953 | 21.67° C | 55% | 1021.9 hPa | 0 mm | 1.79 m/s, 33° | 523 W/m² | - |
| 1787735893 | 21.67° C | 57% | 1021.8 hPa | 0 mm | 0.89 m/s, 44° | 517 W/m² | - |
| 1787735833 | 22.22° C | 55% | 1021.9 hPa | 0 mm | 1.79 m/s, 34° | 516 W/m² | - |
| 1787735773 | 22.22° C | 56% | 1021.9 hPa | 0 mm | 0.89 m/s, 14° | 512 W/m² | - |
| 1787735713 | 22.22° C | 56% | 1022 hPa | 0 mm | 0.89 m/s, 25° | 507 W/m² | - |
| 1787735653 | 22.22° C | 55% | 1022 hPa | 0 mm | 3.13 m/s, 29° | 509 W/m² | - |
| 1787735593 | 22.22° C | 54% | 1021.9 hPa | 0 mm | 2.68 m/s, 41° | 515 W/m² | - |
| 1787735534 | 22.22° C | 55% | 1021.8 hPa | 0 mm | 1.34 m/s, 46° | 514 W/m² | - |
| 1787735473 | 22.22° C | 55% | 1021.9 hPa | 0 mm | 1.34 m/s, 67° | 513 W/m² | - |
| 1787735413 | 22.22° C | 54% | 1022 hPa | 0 mm | 2.68 m/s, 170° | 514 W/m² | - |
| 1787735353 | 22.78° C | 55% | 1021.8 hPa | 0 mm | 0.89 m/s, 51° | 512 W/m² | - |
| 1787735293 | 22.78° C | 55% | 1021.8 hPa | 0 mm | 0.89 m/s, 41° | 509 W/m² | - |
| 1787735233 | 22.78° C | 53% | 1021.8 hPa | 0 mm | 1.34 m/s, 59° | 507 W/m² | - |
| 1787735173 | 22.78° C | 56% | 1021.8 hPa | 0 mm | 0.45 m/s, 81° | 505 W/m² | - |
| 1787735113 | 22.22° C | 55% | 1022 hPa | 0 mm | 0.89 m/s, 68° | 504 W/m² | - |
| 1787735053 | 22.22° C | 59% | 1021.9 hPa | 0 mm | 0 m/s | 500 W/m² | - |
| 1787734993 | 22.22° C | 57% | 1021.8 hPa | 0 mm | 1.34 m/s, 43° | 499 W/m² | - |
| 1787734933 | 22.22° C | 58% | 1021.8 hPa | 0 mm | 0 m/s | 499 W/m² | - |
| 1787734873 | 22.22° C | 57% | 1021.9 hPa | 0 mm | 0.45 m/s, 293° | 497 W/m² | - |
| 1787734813 | 22.22° C | 55% | 1021.8 hPa | 0 mm | 2.24 m/s, 56° | 496 W/m² | - |
| 1787734753 | 22.22° C | 56% | 1021.8 hPa | 0 mm | 1.34 m/s, 134° | 493 W/m² | - |
| 1787734693 | 22.22° C | 55% | 1021.9 hPa | 0 mm | 0.89 m/s, 22° | 493 W/m² | - |
| 1787734633 | 22.78° C | 54% | 1022 hPa | 0 mm | 1.79 m/s, 21° | 492 W/m² | - |
* Rain latest hour (hover to see other rain measurements)
** Current wind speed in m/s (hover to see current wind gust speed)